Time;durP1;ratioP1;P1;durP2;ratioP2;P2;SDS_P1;SDS_P2;PMS_P1;PMS_P2;Temp;Humidity;BMP_temperature;BMP_pressure;BME280_temperature;BME280_humidity;BME280_pressure;Samples;Min_cycle;Max_cycle;Signal;HPM_P1;HPM_P2
2021/03/03 00:00:13;;;;;;;47.33;22.08;;;6.50;99.90;;;;;;5058671;28;20025;-69
2021/03/03 00:02:38;;;;;;;40.53;21.13;;;6.40;99.90;;;;;;5057176;28;20028;-71
2021/03/03 00:05:05;;;;;;;47.08;22.08;;;6.30;99.90;;;;;;5057841;28;20401;-71
2021/03/03 00:07:32;;;;;;;47.75;22.33;;;6.20;99.90;;;;;;5057779;28;20074;-70
2021/03/03 00:09:57;;;;;;;49.25;23.15;;;6.20;99.90;;;;;;5070164;28;20021;-72
2021/03/03 00:12:23;;;;;;;44.97;22.13;;;6.20;99.90;;;;;;5055761;28;20092;-71
2021/03/03 00:14:49;;;;;;;50.67;22.98;;;6.30;99.90;;;;;;5050528;28;20081;-67
2021/03/03 00:17:14;;;;;;;42.65;20.77;;;6.30;99.90;;;;;;5048527;28;20021;-70
2021/03/03 00:19:40;;;;;;;43.05;20.38;;;6.40;99.90;;;;;;5030679;28;20362;-70
2021/03/03 00:22:05;;;;;;;51.45;22.52;;;6.20;99.90;;;;;;5050402;28;20503;-71
2021/03/03 00:24:32;;;;;;;51.47;23.63;;;6.10;99.90;;;;;;5068545;28;20029;-69
2021/03/03 00:26:58;;;;;;;58.90;24.17;;;6.20;99.90;;;;;;5066921;28;20075;-69
2021/03/03 00:29:23;;;;;;;56.10;25.52;;;6.20;99.90;;;;;;5068331;28;20173;-68
2021/03/03 00:31:53;;;;;;;53.25;23.98;;;6.20;99.90;;;;;;5070142;28;20033;-70
2021/03/03 00:34:19;;;;;;;50.97;23.75;;;6.30;99.90;;;;;;5068003;28;20113;-68
2021/03/03 00:36:45;;;;;;;49.47;23.67;;;6.30;99.90;;;;;;5067771;28;20063;-70
2021/03/03 00:39:10;;;;;;;55.42;25.23;;;6.20;99.90;;;;;;5067528;28;20029;-70
2021/03/03 00:41:36;;;;;;;47.55;23.88;;;6.20;99.90;;;;;;5050950;28;20047;-70
2021/03/03 00:44:01;;;;;;;48.00;25.25;;;6.20;99.90;;;;;;5050854;28;20036;-68
2021/03/03 00:46:27;;;;;;;56.53;25.77;;;6.20;99.90;;;;;;5051936;28;20086;-69
2021/03/03 00:48:52;;;;;;;53.72;26.08;;;6.10;99.90;;;;;;5068314;28;20025;-69
2021/03/03 00:51:18;;;;;;;55.50;25.73;;;6.10;99.90;;;;;;5067352;28;20107;-68
2021/03/03 00:53:45;;;;;;;53.22;24.85;;;6.10;99.90;;;;;;5048780;28;20043;-72
2021/03/03 00:56:10;;;;;;;53.20;24.42;;;6.10;99.90;;;;;;5067001;28;20201;-67
2021/03/03 00:58:36;;;;;;;49.35;25.48;;;6.10;99.90;;;;;;5068100;28;20569;-67
2021/03/03 01:01:02;;;;;;;52.28;25.67;;;6.00;99.90;;;;;;5069565;28;20024;-70
2021/03/03 01:03:28;;;;;;;49.67;23.40;;;5.90;99.90;;;;;;5070371;28;20019;-70
2021/03/03 01:05:53;;;;;;;49.42;23.88;;;5.90;99.90;;;;;;5071988;28;20124;-70
2021/03/03 01:08:20;;;;;;;52.25;23.77;;;6.00;99.90;;;;;;5061154;28;20175;-68
2021/03/03 01:10:47;;;;;;;51.35;24.23;;;6.00;99.90;;;;;;5071481;28;20035;-69
2021/03/03 01:13:13;;;;;;;57.40;24.95;;;5.80;99.90;;;;;;5073447;28;20582;-69
2021/03/03 01:15:38;;;;;;;49.25;25.05;;;5.70;99.90;;;;;;5070436;28;20021;-70
2021/03/03 01:18:04;;;;;;;58.55;25.45;;;5.70;99.90;;;;;;5052851;28;20028;-68
2021/03/03 01:20:31;;;;;;;57.90;25.90;;;5.70;99.90;;;;;;5072775;28;20680;-68
2021/03/03 01:22:58;;;;;;;53.28;25.77;;;5.60;99.90;;;;;;5057149;28;20017;-69
2021/03/03 01:25:24;;;;;;;60.67;26.83;;;5.60;99.90;;;;;;5063116;28;20109;-67
2021/03/03 01:27:50;;;;;;;50.05;24.60;;;5.60;99.90;;;;;;5068676;28;20024;-68
2021/03/03 01:30:17;;;;;;;62.25;26.80;;;5.70;99.90;;;;;;5058863;28;20081;-67
2021/03/03 01:32:42;;;;;;;57.53;25.58;;;5.70;99.90;;;;;;5054155;28;20024;-69
2021/03/03 01:35:09;;;;;;;62.63;26.23;;;5.80;99.90;;;;;;5065821;28;20028;-67
2021/03/03 01:37:35;;;;;;;55.70;25.15;;;5.70;99.90;;;;;;5072293;28;20500;-68
2021/03/03 01:40:01;;;;;;;55.75;26.00;;;5.70;99.90;;;;;;5087942;28;20059;-71
2021/03/03 01:42:26;;;;;;;59.65;25.90;;;5.60;99.90;;;;;;5090759;28;20069;-68
2021/03/03 01:44:52;;;;;;;49.58;25.25;;;5.60;99.90;;;;;;5088692;28;20103;-67
2021/03/03 01:47:17;;;;;;;58.15;27.17;;;5.50;99.90;;;;;;5063448;28;20028;-68
2021/03/03 01:49:43;;;;;;;60.78;26.10;;;5.50;99.90;;;;;;5090479;28;20350;-67
2021/03/03 01:52:08;;;;;;;52.63;25.65;;;5.50;99.90;;;;;;5070564;28;20443;-67
2021/03/03 01:54:35;;;;;;;53.20;26.60;;;5.60;99.90;;;;;;5070764;28;20091;-69
2021/03/03 01:57:03;;;;;;;61.03;26.88;;;5.60;99.90;;;;;;5070783;28;20032;-66
2021/03/03 01:59:28;;;;;;;56.45;27.42;;;5.60;99.90;;;;;;5083640;28;20055;-68
2021/03/03 02:01:54;;;;;;;68.93;28.85;;;5.60;99.90;;;;;;5070103;28;20044;-67
2021/03/03 02:04:20;;;;;;;59.60;27.17;;;5.50;99.90;;;;;;5070127;28;20081;-71
2021/03/03 02:06:52;;;;;;;61.78;27.52;;;5.50;99.90;;;;;;5071723;28;20616;-68
2021/03/03 02:09:26;;;;;;;;;;;5.40;99.90;;;;;;5073529;28;20119;-69
2021/03/03 02:12:04;;;;;;;60.25;26.58;;;5.30;99.90;;;;;;5072853;28;19955;-69
2021/03/03 02:14:32;;;;;;;56.03;26.55;;;5.30;99.90;;;;;;5068624;28;20056;-71
2021/03/03 02:17:00;;;;;;;52.85;25.75;;;5.30;99.90;;;;;;5068896;28;20028;-69
2021/03/03 02:19:29;;;;;;;56.58;26.55;;;5.30;99.90;;;;;;5072989;28;20028;-69
2021/03/03 02:22:14;;;;;;;59.38;27.88;;;5.30;99.90;;;;;;5073473;28;20103;-69
2021/03/03 02:24:46;;;;;;;56.53;26.20;;;5.20;99.90;;;;;;5070757;28;20036;-69
2021/03/03 02:27:12;;;;;;;50.30;24.65;;;5.20;99.90;;;;;;5068742;28;20039;-69
2021/03/03 02:29:39;;;;;;;63.58;27.60;;;5.10;99.90;;;;;;5075206;28;20416;-69
2021/03/03 02:32:05;;;;;;;50.03;25.00;;;5.20;99.90;;;;;;5054209;28;20016;-70
2021/03/03 02:34:32;;;;;;;57.00;25.75;;;5.10;99.90;;;;;;5081068;28;20599;-70
2021/03/03 02:36:58;;;;;;;61.35;27.55;;;5.20;99.90;;;;;;5069034;28;20063;-68
2021/03/03 02:39:26;;;;;;;51.95;27.13;;;5.10;99.90;;;;;;5089654;28;20032;-70
2021/03/03 02:41:52;;;;;;;61.38;26.52;;;5.10;99.90;;;;;;5058411;28;20095;-69
2021/03/03 02:44:18;;;;;;;55.72;26.73;;;5.10;99.90;;;;;;5068662;28;20024;-70
2021/03/03 02:46:46;;;;;;;58.20;27.10;;;5.20;99.90;;;;;;5051775;28;20075;-69
2021/03/03 02:49:15;;;;;;;58.65;27.23;;;5.10;99.90;;;;;;5067460;28;20050;-68
2021/03/03 02:51:41;;;;;;;54.10;26.13;;;5.20;99.90;;;;;;5079617;28;20024;-71
2021/03/03 02:54:14;;;;;;;48.92;24.63;;;5.20;99.90;;;;;;5070557;28;20022;-68
2021/03/03 02:56:40;;;;;;;62.00;27.92;;;5.10;99.90;;;;;;5089017;28;20364;-69
2021/03/03 02:59:32;;;;;;;56.28;26.95;;;5.10;99.90;;;;;;5074378;28;20094;-66
2021/03/03 03:01:58;;;;;;;62.47;25.38;;;5.00;99.90;;;;;;5049170;28;20013;-68
2021/03/03 03:04:26;;;;;;;59.28;26.50;;;5.00;99.90;;;;;;5067132;28;20150;-68
2021/03/03 03:06:53;;;;;;;72.15;28.80;;;5.00;99.90;;;;;;5065848;28;20572;-71
2021/03/03 03:09:19;;;;;;;53.28;26.17;;;4.90;99.90;;;;;;5069030;28;20021;-71
2021/03/03 03:11:51;;;;;;;53.97;24.92;;;4.80;99.90;;;;;;5069167;28;20032;-67
2021/03/03 03:14:27;;;;;;;59.97;27.83;;;4.80;99.90;;;;;;5051132;28;20119;-70
2021/03/03 03:16:55;;;;;;;63.03;26.25;;;4.90;99.90;;;;;;5069222;28;20024;-70
2021/03/03 03:19:42;;;;;;;54.88;26.08;;;4.90;99.90;;;;;;5060988;28;20025;-67
2021/03/03 03:22:12;;;;;;;55.25;27.48;;;5.00;99.90;;;;;;5069229;28;20024;-68
2021/03/03 03:24:39;;;;;;;53.97;24.15;;;5.00;99.90;;;;;;5068013;28;20440;-73
2021/03/03 03:27:05;;;;;;;55.15;25.77;;;5.10;99.90;;;;;;5067672;28;20025;-71
2021/03/03 03:29:32;;;;;;;53.95;26.10;;;5.00;99.90;;;;;;5050962;28;20303;-69
2021/03/03 03:31:58;;;;;;;54.50;26.25;;;4.90;99.90;;;;;;5054454;28;20051;-68
2021/03/03 03:34:24;;;;;;;55.00;26.33;;;4.80;99.90;;;;;;5047809;28;20025;-70
2021/03/03 03:36:51;;;;;;;54.45;25.35;;;4.80;99.90;;;;;;5062036;28;20035;-67
2021/03/03 03:39:17;;;;;;;56.28;26.25;;;4.80;99.90;;;;;;5040634;28;20048;-68
2021/03/03 03:41:46;;;;;;;60.30;25.27;;;4.80;99.90;;;;;;5066945;28;20024;-69
2021/03/03 03:44:13;;;;;;;56.50;24.75;;;4.90;99.90;;;;;;5067304;28;20082;-69
2021/03/03 03:46:43;;;;;;;52.58;24.35;;;5.00;99.90;;;;;;5067671;28;20035;-72
2021/03/03 03:49:10;;;;;;;57.22;26.10;;;5.00;99.90;;;;;;5049463;28;20025;-68
2021/03/03 03:51:39;;;;;;;60.33;26.67;;;5.00;99.90;;;;;;5050909;28;20531;-69
2021/03/03 03:54:06;;;;;;;55.08;25.80;;;4.90;99.90;;;;;;5067053;28;20024;-67
2021/03/03 03:56:33;;;;;;;52.53;25.45;;;4.90;99.90;;;;;;5061212;28;20056;-71
2021/03/03 03:58:59;;;;;;;56.67;26.50;;;4.90;99.90;;;;;;5062609;28;20028;-74
2021/03/03 04:01:24;;;;;;;50.20;24.60;;;4.90;99.90;;;;;;5042881;28;20025;-70
2021/03/03 04:03:50;;;;;;;50.70;25.55;;;4.80;99.90;;;;;;5063262;28;20020;-69
2021/03/03 04:06:15;;;;;;;54.65;25.83;;;4.80;99.90;;;;;;5068174;28;20055;-68
2021/03/03 04:08:41;;;;;;;57.17;25.85;;;4.80;99.90;;;;;;5052519;28;20059;-70
2021/03/03 04:11:06;;;;;;;58.88;25.15;;;4.80;99.90;;;;;;5064070;28;20049;-70
2021/03/03 04:13:32;;;;;;;54.85;24.23;;;4.80;99.90;;;;;;5061953;28;20055;-72
2021/03/03 04:15:57;;;;;;;55.22;25.90;;;4.80;99.90;;;;;;5049987;28;20076;-72
2021/03/03 04:18:23;;;;;;;54.88;24.42;;;4.70;99.90;;;;;;5023389;28;20104;-70
2021/03/03 04:20:50;;;;;;;54.45;25.25;;;4.80;99.90;;;;;;5064067;28;20542;-70
2021/03/03 04:23:15;;;;;;;55.30;24.95;;;4.80;99.90;;;;;;5067419;28;20036;-70
2021/03/03 04:25:41;;;;;;;53.25;23.70;;;4.80;99.90;;;;;;5050196;28;20039;-68
2021/03/03 04:28:07;;;;;;;54.75;25.05;;;4.70;99.90;;;;;;5067844;28;20028;-70
2021/03/03 04:30:34;;;;;;;58.28;27.15;;;4.70;99.90;;;;;;5075440;28;20501;-69
2021/03/03 04:33:01;;;;;;;64.00;28.67;;;4.70;99.90;;;;;;5070224;28;20020;-70
2021/03/03 04:35:26;;;;;;;55.17;26.77;;;4.70;99.90;;;;;;5075451;28;20198;-72
2021/03/03 04:37:52;;;;;;;56.85;26.33;;;4.70;99.90;;;;;;5088435;28;20542;-71
2021/03/03 04:40:18;;;;;;;56.30;27.42;;;4.70;99.90;;;;;;5085170;28;20059;-69
2021/03/03 04:42:44;;;;;;;57.13;27.83;;;4.70;99.90;;;;;;5069832;28;20177;-69
2021/03/03 04:45:11;;;;;;;58.60;25.88;;;4.80;99.90;;;;;;5066062;28;20089;-70
2021/03/03 04:47:38;;;;;;;52.30;26.10;;;4.70;99.90;;;;;;5070815;28;20028;-71
2021/03/03 04:50:07;;;;;;;60.47;25.65;;;4.70;99.90;;;;;;5076667;28;20516;-69
2021/03/03 04:52:33;;;;;;;52.15;25.50;;;4.80;99.90;;;;;;5079357;28;20062;-69
2021/03/03 04:54:58;;;;;;;52.55;24.17;;;4.90;99.90;;;;;;5080374;28;20024;-71
2021/03/03 04:57:25;;;;;;;52.65;26.60;;;5.00;99.90;;;;;;5079336;28;20354;-67
2021/03/03 04:59:50;;;;;;;56.58;27.38;;;5.00;99.90;;;;;;5061182;28;20025;-69
2021/03/03 05:02:16;;;;;;;53.47;26.60;;;5.00;99.90;;;;;;5072333;28;20037;-71
2021/03/03 05:04:43;;;;;;;54.20;25.27;;;5.10;99.90;;;;;;5055540;28;20036;-69
2021/03/03 05:07:09;;;;;;;60.20;27.50;;;5.10;99.90;;;;;;5057792;28;20052;-69
2021/03/03 05:09:34;;;;;;;55.42;25.10;;;5.00;99.90;;;;;;5062434;28;20074;-71
2021/03/03 05:12:00;;;;;;;61.47;26.90;;;4.90;99.90;;;;;;5073425;28;20082;-70
2021/03/03 05:14:25;;;;;;;61.03;27.30;;;4.90;99.90;;;;;;5063124;28;20055;-73
2021/03/03 05:16:51;;;;;;;52.55;24.92;;;5.00;99.90;;;;;;5075677;28;20368;-69
2021/03/03 05:19:17;;;;;;;64.60;27.52;;;5.00;99.90;;;;;;5071030;28;20025;-70
2021/03/03 05:21:45;;;;;;;51.15;24.25;;;4.90;99.90;;;;;;5050388;28;20045;-69
2021/03/03 05:24:11;;;;;;;61.35;26.15;;;4.90;99.90;;;;;;5069354;28;20035;-69
2021/03/03 05:26:36;;;;;;;59.92;27.27;;;4.90;99.90;;;;;;5080073;28;20037;-72
2021/03/03 05:29:03;;;;;;;60.42;27.48;;;5.00;99.90;;;;;;5084334;28;20049;-69
2021/03/03 05:31:28;;;;;;;60.28;27.15;;;4.90;99.90;;;;;;5071878;28;20043;-71
2021/03/03 05:33:55;;;;;;;55.35;24.30;;;4.90;99.90;;;;;;5075055;28;20016;-70
2021/03/03 05:36:22;;;;;;;54.60;26.38;;;4.90;99.90;;;;;;5087997;28;20507;-70
2021/03/03 05:38:47;;;;;;;54.75;25.67;;;4.90;99.90;;;;;;5074480;28;20039;-69
2021/03/03 05:41:13;;;;;;;59.55;26.33;;;4.90;99.90;;;;;;5072602;28;20097;-71
2021/03/03 05:43:40;;;;;;;54.72;25.92;;;4.90;99.90;;;;;;5069795;28;20021;-68
2021/03/03 05:46:06;;;;;;;59.22;26.52;;;4.90;99.90;;;;;;5069215;28;20032;-69
2021/03/03 05:48:41;;;;;;;60.83;26.52;;;4.90;99.90;;;;;;5088394;28;20069;-72
2021/03/03 05:51:08;;;;;;;65.00;26.30;;;4.90;99.90;;;;;;5070417;28;20438;-74
2021/03/03 05:53:36;;;;;;;64.38;28.83;;;5.00;99.90;;;;;;5089415;28;20082;-69
2021/03/03 05:56:11;;;;;;;63.67;28.40;;;5.10;99.90;;;;;;5062500;28;20096;-69
2021/03/03 05:58:40;;;;;;;58.28;27.42;;;5.20;99.90;;;;;;5068555;28;20059;-71
2021/03/03 06:01:07;;;;;;;52.25;25.77;;;5.20;99.90;;;;;;5076530;28;20021;-73
2021/03/03 06:03:34;;;;;;;55.85;27.10;;;5.30;99.90;;;;;;5058753;28;20425;-71
2021/03/03 06:06:00;;;;;;;57.05;26.17;;;5.30;99.90;;;;;;5074964;28;20040;-70
2021/03/03 06:08:28;;;;;;;58.10;24.65;;;5.20;99.90;;;;;;5068635;28;20052;-70
2021/03/03 06:10:54;;;;;;;55.35;26.48;;;5.10;99.90;;;;;;5053651;28;20033;-73
2021/03/03 06:13:20;;;;;;;57.92;26.52;;;5.10;99.90;;;;;;5061379;28;20025;-71
2021/03/03 06:15:47;;;;;;;50.83;24.38;;;5.10;99.90;;;;;;5058710;28;20029;-71
2021/03/03 06:18:14;;;;;;;56.38;26.77;;;5.10;99.90;;;;;;5044133;28;20031;-72
2021/03/03 06:20:43;;;;;;;53.67;25.38;;;5.10;99.90;;;;;;5063723;28;20021;-71
2021/03/03 06:23:22;;;;;;;52.35;27.05;;;5.00;99.90;;;;;;5069050;28;20020;-69
2021/03/03 06:26:08;;;;;;;56.65;27.05;;;5.00;99.90;;;;;;5066300;28;20032;-68
2021/03/03 06:28:45;;;;;;;54.67;26.55;;;5.00;99.90;;;;;;5035338;28;20032;-70
2021/03/03 06:31:32;;;;;;;63.30;28.40;;;5.10;99.90;;;;;;5055338;28;20032;-74
2021/03/03 06:34:14;;;;;;;61.88;27.50;;;5.10;99.90;;;;;;5067071;28;20368;-71
2021/03/03 06:36:55;;;;;;;67.60;30.75;;;5.10;99.90;;;;;;5084289;28;20024;-71
2021/03/03 06:39:22;;;;;;;53.33;26.20;;;5.10;99.90;;;;;;5055035;28;20041;-69
2021/03/03 06:41:50;;;;;;;59.03;26.40;;;5.20;99.90;;;;;;5057531;28;20400;-70
2021/03/03 06:44:16;;;;;;;63.17;28.10;;;5.30;99.90;;;;;;5042838;28;20024;-70
2021/03/03 06:46:41;;;;;;;56.92;28.33;;;5.30;99.90;;;;;;5053342;28;20438;-73
2021/03/03 06:49:23;;;;;;;64.45;28.92;;;5.30;99.90;;;;;;5065707;28;20016;-72
2021/03/03 06:51:50;;;;;;;60.00;26.88;;;5.40;99.90;;;;;;5063803;28;20020;-68
2021/03/03 06:54:18;;;;;;;61.83;27.67;;;5.30;99.90;;;;;;5023753;28;20740;-70
2021/03/03 06:56:47;;;;;;;64.45;29.50;;;5.30;99.90;;;;;;5043655;28;20207;-71
2021/03/03 06:59:16;;;;;;;59.60;28.08;;;5.30;99.90;;;;;;5039276;28;20028;-72
2021/03/03 07:01:44;;;;;;;59.05;28.13;;;5.20;99.90;;;;;;5065546;28;20025;-69
2021/03/03 07:04:25;;;;;;;67.32;28.98;;;5.30;99.90;;;;;;5060060;28;20140;-70
2021/03/03 07:06:52;;;;;;;54.53;27.05;;;5.30;99.90;;;;;;5058270;28;20055;-69
2021/03/03 07:09:20;;;;;;;63.78;28.25;;;5.30;99.90;;;;;;5058233;28;20421;-73
2021/03/03 07:11:46;;;;;;;62.65;28.63;;;5.30;99.90;;;;;;5063641;28;20600;-69
2021/03/03 07:14:13;;;;;;;57.90;28.00;;;5.30;99.90;;;;;;5060259;28;20017;-71
2021/03/03 07:17:05;;;;;;;63.53;29.15;;;5.20;99.90;;;;;;5068475;28;20107;-69
2021/03/03 07:19:33;;;;;;;62.35;28.88;;;5.30;99.90;;;;;;5068936;28;20036;-70
2021/03/03 07:21:59;;;;;;;67.55;28.80;;;5.40;99.90;;;;;;5068062;28;20063;-71
2021/03/03 07:24:25;;;;;;;72.30;30.73;;;5.40;99.90;;;;;;5060077;28;20170;-69
2021/03/03 07:26:52;;;;;;;68.72;32.13;;;5.40;99.90;;;;;;5071636;28;20055;-73
2021/03/03 07:29:18;;;;;;;64.13;28.15;;;5.50;99.90;;;;;;5061529;28;20021;-71
2021/03/03 07:31:44;;;;;;;69.50;28.98;;;5.50;99.90;;;;;;5052047;28;20028;-69
2021/03/03 07:34:10;;;;;;;59.38;28.90;;;5.50;99.90;;;;;;5055781;28;20040;-69
2021/03/03 07:36:38;;;;;;;64.32;28.58;;;5.50;99.90;;;;;;5058147;28;20024;-73
2021/03/03 07:39:07;;;;;;;62.83;27.92;;;5.50;99.90;;;;;;5054905;28;20102;-73
2021/03/03 07:41:49;;;;;;;57.70;28.75;;;5.60;99.90;;;;;;5068425;28;20044;-68
2021/03/03 07:44:20;;;;;;;57.97;28.75;;;5.60;99.90;;;;;;5036681;28;20051;-70
2021/03/03 07:46:48;;;;;;;67.53;28.75;;;5.60;99.90;;;;;;5059402;28;20527;-72
2021/03/03 07:49:20;;;;;;;61.58;28.80;;;5.70;99.90;;;;;;5068749;28;20065;-71
2021/03/03 07:51:46;;;;;;;67.90;30.95;;;5.80;99.90;;;;;;5071419;28;20488;-71
2021/03/03 07:54:14;;;;;;;64.32;28.65;;;5.90;99.90;;;;;;5053992;28;20040;-74
2021/03/03 07:56:41;;;;;;;61.78;29.60;;;5.90;99.90;;;;;;5062153;28;20033;-72
2021/03/03 07:59:18;;;;;;;57.65;27.60;;;6.00;99.90;;;;;;5067911;28;20031;-71
2021/03/03 08:01:50;;;;;;;66.00;31.13;;;5.90;99.90;;;;;;5065168;28;20024;-72
2021/03/03 08:04:41;;;;;;;61.50;31.27;;;5.90;99.90;;;;;;5068176;28;20377;-72
2021/03/03 08:07:27;;;;;;;70.45;29.27;;;6.00;99.90;;;;;;5060275;28;20037;-70
2021/03/03 08:10:11;;;;;;;69.68;29.48;;;6.00;99.90;;;;;;5068967;28;20024;-71
2021/03/03 08:13:04;;;;;;;69.47;29.55;;;6.00;99.90;;;;;;5071643;28;20131;-73
2021/03/03 08:15:31;;;;;;;;;;;6.10;99.90;;;;;;5066025;28;20045;-72
2021/03/03 08:18:14;;;;;;;64.85;29.30;;;6.10;99.90;;;;;;5068904;28;20424;-70
2021/03/03 08:20:42;;;;;;;63.50;29.25;;;6.10;99.90;;;;;;5059184;28;20052;-72
2021/03/03 08:23:10;;;;;;;69.82;30.67;;;6.00;99.90;;;;;;5068449;28;20078;-72
2021/03/03 08:25:50;;;;;;;64.32;30.73;;;6.10;99.90;;;;;;5042584;28;20036;-72
2021/03/03 08:28:25;;;;;;;65.43;31.23;;;6.40;99.90;;;;;;5066166;28;20020;-71
2021/03/03 08:31:12;;;;;;;62.40;31.23;;;6.50;99.90;;;;;;5077034;28;20082;-71
2021/03/03 08:33:42;;;;;;;63.40;29.88;;;6.60;99.90;;;;;;5088284;28;20027;-70
2021/03/03 08:36:30;;;;;;;70.70;32.05;;;6.80;99.90;;;;;;5074955;28;20103;-71
2021/03/03 08:38:56;;;;;;;78.45;33.53;;;6.90;99.90;;;;;;5082026;28;20021;-72
2021/03/03 08:41:30;;;;;;;64.25;30.25;;;6.80;99.90;;;;;;5068831;28;20075;-70
2021/03/03 08:44:05;;;;;;;68.25;31.83;;;6.90;99.90;;;;;;5068159;28;20024;-70
2021/03/03 08:46:30;;;;;;;65.20;31.38;;;7.00;99.90;;;;;;5068249;28;20119;-69
2021/03/03 08:48:55;;;;;;;69.32;31.58;;;7.20;99.90;;;;;;5065313;28;20029;-73
2021/03/03 08:51:32;;;;;;;53.75;28.75;;;7.40;99.90;;;;;;5056537;28;20055;-71
2021/03/03 08:54:09;;;;;;;64.93;31.65;;;7.60;99.90;;;;;;5067196;28;20024;-71
2021/03/03 08:56:41;;;;;;;77.57;32.38;;;7.70;99.90;;;;;;5058697;28;20062;-71
2021/03/03 08:59:06;;;;;;;67.07;32.13;;;7.40;99.90;;;;;;5071312;28;20025;-70
2021/03/03 09:01:52;;;;;;;68.40;32.08;;;7.40;99.90;;;;;;5069466;28;20028;-68
2021/03/03 09:04:29;;;;;;;77.03;35.95;;;7.50;99.90;;;;;;5067737;28;20040;-73
2021/03/03 09:07:03;;;;;;;65.05;32.15;;;7.40;99.90;;;;;;5059681;28;20064;-70
2021/03/03 09:09:36;;;;;;;73.45;31.05;;;7.50;99.90;;;;;;5069272;28;20077;-72
2021/03/03 09:12:09;;;;;;;62.35;31.88;;;7.60;99.90;;;;;;5059734;28;20029;-73
2021/03/03 09:14:37;;;;;;;72.22;33.65;;;7.70;99.90;;;;;;5049108;28;20023;-71
2021/03/03 09:17:12;;;;;;;77.63;34.42;;;7.60;99.90;;;;;;5048954;28;20025;-71
2021/03/03 09:19:38;;;;;;;71.00;33.88;;;7.40;99.90;;;;;;5063539;28;20047;-70
2021/03/03 09:22:18;;;;;;;63.45;31.30;;;7.70;99.90;;;;;;5051785;28;20073;-71
2021/03/03 09:24:45;;;;;;;65.18;31.48;;;7.90;99.90;;;;;;5082585;28;20204;-70
2021/03/03 09:27:11;;;;;;;70.20;33.60;;;8.30;99.90;;;;;;5070488;28;20040;-71
2021/03/03 09:29:39;;;;;;;73.40;35.50;;;8.50;99.90;;;;;;5073453;28;20029;-74
2021/03/03 09:32:20;;;;;;;63.83;32.53;;;8.20;99.90;;;;;;5070463;28;20017;-72
2021/03/03 09:34:51;;;;;;;63.30;31.63;;;8.40;99.90;;;;;;5037227;28;20029;-72
2021/03/03 09:37:18;;;;;;;60.80;32.77;;;8.40;99.90;;;;;;5058762;28;20063;-70
2021/03/03 09:40:03;;;;;;;56.85;31.33;;;8.30;99.90;;;;;;5053470;28;20021;-73
2021/03/03 09:42:41;;;;;;;61.10;30.75;;;8.50;99.90;;;;;;5070772;28;20021;-73
2021/03/03 09:45:09;;;;;;;61.83;32.05;;;8.80;99.90;;;;;;5059161;28;20132;-69
2021/03/03 09:47:39;;;;;;;57.25;31.15;;;8.90;99.90;;;;;;5071667;28;20044;-70
2021/03/03 09:50:07;;;;;;;63.92;31.38;;;8.70;99.90;;;;;;5073156;28;20021;-72
2021/03/03 09:52:41;;;;;;;65.47;32.08;;;8.70;99.90;;;;;;5073737;28;20069;-72
2021/03/03 09:55:13;;;;;;;60.55;32.03;;;8.70;99.90;;;;;;5063831;28;20025;-73
2021/03/03 09:57:41;;;;;;;63.00;33.17;;;8.80;99.90;;;;;;5069115;28;20024;-70
2021/03/03 10:00:18;;;;;;;71.85;34.15;;;8.80;99.90;;;;;;5064227;28;20178;-71
2021/03/03 10:02:50;;;;;;;65.25;32.95;;;8.70;99.90;;;;;;5058904;28;20400;-71
2021/03/03 10:05:21;;;;;;;71.95;32.13;;;8.60;99.90;;;;;;5069652;28;20048;-70
2021/03/03 10:07:52;;;;;;;63.10;32.85;;;8.60;99.90;;;;;;5070082;28;20032;-69
2021/03/03 10:10:21;;;;;;;59.15;33.22;;;8.40;99.90;;;;;;5071460;28;20166;-74
2021/03/03 10:12:48;;;;;;;64.95;31.90;;;8.70;99.90;;;;;;5036552;28;20036;-72
2021/03/03 10:15:37;;;;;;;62.85;31.85;;;8.70;99.90;;;;;;5052878;28;20646;-70
2021/03/03 10:18:08;;;;;;;62.40;33.90;;;8.70;99.90;;;;;;5039520;28;20040;-71
2021/03/03 10:20:43;;;;;;;64.68;31.85;;;8.70;99.90;;;;;;5060832;28;20048;-69
2021/03/03 10:23:12;;;;;;;57.53;31.33;;;8.70;99.90;;;;;;5069472;28;20025;-71
2021/03/03 10:26:01;;;;;;;57.25;30.88;;;8.50;99.90;;;;;;5070468;28;20485;-70
2021/03/03 10:28:29;;;;;;;63.30;29.30;;;8.30;99.90;;;;;;5069366;28;20103;-68
2021/03/03 10:31:01;;;;;;;49.67;27.42;;;8.40;99.90;;;;;;5072016;28;20043;-71
2021/03/03 10:33:40;;;;;;;54.08;27.58;;;8.40;99.90;;;;;;5075099;28;20025;-70
2021/03/03 10:36:22;;;;;;;49.58;25.92;;;8.30;99.90;;;;;;5070716;28;20507;-72
2021/03/03 10:38:56;;;;;;;42.47;23.48;;;8.40;99.90;;;;;;5073206;28;20021;-73
2021/03/03 10:41:32;;;;;;;41.78;23.67;;;8.60;99.90;;;;;;5071545;28;20028;-71
2021/03/03 10:43:58;;;;;;;46.30;24.38;;;8.80;99.90;;;;;;5072572;28;20016;-69
2021/03/03 10:46:25;;;;;;;41.25;23.92;;;8.90;99.90;;;;;;5062006;28;20481;-72
2021/03/03 10:48:53;;;;;;;37.42;21.67;;;8.90;99.90;;;;;;5069259;28;20036;-70
2021/03/03 10:51:32;;;;;;;42.47;24.58;;;9.30;99.90;;;;;;5058030;28;20044;-72
2021/03/03 10:53:58;;;;;;;42.00;23.13;;;9.20;99.90;;;;;;5071888;28;20385;-74
2021/03/03 10:56:27;;;;;;;40.92;25.02;;;8.70;99.90;;;;;;5071295;28;20040;-72
2021/03/03 10:58:58;;;;;;;35.85;22.27;;;8.60;99.90;;;;;;5082314;28;20030;-72
2021/03/03 11:01:38;;;;;;;33.97;20.52;;;8.90;99.90;;;;;;5075423;28;20111;-71
2021/03/03 11:04:04;;;;;;;33.95;21.92;;;9.10;99.90;;;;;;5076944;28;20021;-72
2021/03/03 11:06:33;;;;;;;41.03;23.70;;;9.10;99.90;;;;;;5071093;28;20056;-72
2021/03/03 11:08:59;;;;;;;37.80;23.40;;;9.00;99.90;;;;;;5069744;28;20024;-71
2021/03/03 11:11:25;;;;;;;38.00;21.70;;;9.10;99.90;;;;;;5069586;28;20012;-70
2021/03/03 11:13:51;;;;;;;39.72;23.23;;;9.30;99.90;;;;;;5069439;28;20113;-71
2021/03/03 11:16:16;;;;;;;39.67;22.83;;;9.20;99.90;;;;;;5068224;28;20185;-74
2021/03/03 11:18:42;;;;;;;44.60;24.38;;;9.30;99.90;;;;;;5069110;28;20025;-70
2021/03/03 11:21:08;;;;;;;41.75;24.40;;;9.30;99.90;;;;;;5071141;28;20047;-70
2021/03/03 11:23:34;;;;;;;45.05;22.48;;;9.10;99.90;;;;;;5069148;28;20111;-71
2021/03/03 11:26:00;;;;;;;42.95;23.60;;;9.30;99.90;;;;;;5046757;28;20049;-71
2021/03/03 11:28:26;;;;;;;43.30;23.35;;;9.60;99.90;;;;;;5070913;28;20106;-73
2021/03/03 11:30:52;;;;;;;47.08;22.92;;;9.60;99.90;;;;;;5088260;28;20494;-72
2021/03/03 11:33:18;;;;;;;42.75;23.13;;;9.70;99.90;;;;;;5085954;28;20016;-71
2021/03/03 11:35:43;;;;;;;38.20;22.10;;;10.10;99.90;;;;;;5081997;28;20136;-72
2021/03/03 11:38:09;;;;;;;40.95;22.23;;;10.50;99.90;;;;;;5070564;28;20016;-69
2021/03/03 11:40:35;;;;;;;37.78;23.17;;;10.50;99.90;;;;;;5081161;28;20066;-71
2021/03/03 11:43:01;;;;;;;36.42;21.35;;;10.70;99.90;;;;;;5077469;28;20114;-71
2021/03/03 11:45:27;;;;;;;34.47;22.17;;;11.00;99.90;;;;;;5057131;28;20463;-72
2021/03/03 11:47:53;;;;;;;42.05;24.27;;;11.10;99.90;;;;;;5074655;28;20107;-70
2021/03/03 11:50:18;;;;;;;41.67;23.83;;;11.00;99.90;;;;;;5084345;28;20024;-68
2021/03/03 11:52:44;;;;;;;38.35;23.42;;;10.80;99.90;;;;;;5078902;28;20028;-71
2021/03/03 11:55:10;;;;;;;41.00;23.92;;;10.60;99.90;;;;;;5075737;28;20255;-72
2021/03/03 11:57:36;;;;;;;49.30;25.13;;;10.60;99.90;;;;;;5068086;28;20016;-70
2021/03/03 12:00:05;;;;;;;46.88;27.15;;;10.90;99.90;;;;;;5056816;28;20666;-71
2021/03/03 12:02:32;;;;;;;48.78;27.20;;;10.50;99.90;;;;;;5045213;28;20079;-70
2021/03/03 12:04:57;;;;;;;48.20;26.40;;;10.30;99.90;;;;;;5064642;28;20048;-70
2021/03/03 12:07:23;;;;;;;47.45;27.30;;;10.80;99.90;;;;;;5063790;28;20034;-70
2021/03/03 12:09:48;;;;;;;43.70;26.33;;;10.90;99.90;;;;;;5062905;28;20031;-69
2021/03/03 12:12:14;;;;;;;49.50;27.55;;;11.30;99.90;;;;;;5068743;28;20060;-72
2021/03/03 12:14:41;;;;;;;49.35;28.10;;;11.10;99.90;;;;;;5059737;28;20107;-70
2021/03/03 12:17:06;;;;;;;52.53;29.20;;;11.40;99.90;;;;;;5042886;28;20053;-73
2021/03/03 12:19:32;;;;;;;53.47;31.60;;;11.70;99.90;;;;;;5049055;28;20524;-73
2021/03/03 12:21:57;;;;;;;49.63;29.13;;;11.20;99.90;;;;;;5050973;28;20078;-71
2021/03/03 12:24:23;;;;;;;58.30;32.75;;;11.40;99.90;;;;;;5055867;28;20021;-71
2021/03/03 12:26:49;;;;;;;61.88;32.55;;;11.50;99.90;;;;;;5051393;28;20029;-71
2021/03/03 12:29:14;;;;;;;57.72;32.10;;;11.60;99.90;;;;;;5058400;28;20610;-72
2021/03/03 12:31:40;;;;;;;65.50;34.88;;;12.00;99.90;;;;;;5049464;28;20060;-72
2021/03/03 12:34:05;;;;;;;63.25;35.67;;;11.70;99.90;;;;;;5080362;28;20020;-71
2021/03/03 12:36:31;;;;;;;79.13;34.38;;;11.80;99.90;;;;;;5065070;28;20927;-72
2021/03/03 12:38:57;;;;;;;68.80;36.85;;;12.00;99.90;;;;;;5083278;28;20020;-73
2021/03/03 12:41:22;;;;;;;67.25;36.13;;;12.30;99.90;;;;;;5086943;28;20032;-72
2021/03/03 12:43:48;;;;;;;69.13;36.13;;;12.00;99.90;;;;;;5082508;28;20094;-72